Aeroporto :
LOGIN :

Iscrizione | Disclaimer

   EN    FR    IT 

 










Sommario :    VFR   VFR Marginale   IFR   IFR Intensivo   IFR Molto Intensivo
Visibilità : 
Base nubi : 
>= 8 km
>= 3000ft
5 / 8 km
1000 / 3000 ft
1500m / 5 km
500 / 1000 ft
800 / 1500m
200 / 500 ft
< 800m
< 200 ft
Simboli :   Temporali  Nebbia  Neve Forte  Precipitazioni Forti  Vento > 20 kt
SIGMETs :   Varie  Temporali  Ghiacco  Turbolenza  Onda orograficha  Ceneri Vulcaniche






- Altitudine del aeroporto : 53 ft
- Codice IATA : HAM


EDDH - Hamburg

ULTIMO METAR :
  • 080950Z 15010KT 120V180 CAVOK 16/06 Q1026 NOSIG

METARs OBSOLETI :
  • 080920Z 15011KT CAVOK 15/05 Q1026 NOSIG
  • 080850Z 15011KT CAVOK 15/04 Q1027 NOSIG
  • 080820Z 15012KT CAVOK 14/03 Q1027 NOSIG
  • 080750Z 15009KT 110V190 CAVOK 13/02 Q1027 NOSIG
  • 080720Z 14009KT 110V170 CAVOK 12/01 Q1028 NOSIG

TAF AMD TAF EDDH
Valido dal 08 a 08 ore il 09 a 12 ore UTC


080825Z 0808/0912 15012KT CAVOK
BECMG 0810/0813 22010KT
BECMG 0815/0817 31005KT
PROB30
TEMPO 0907/0910 BKN014



MetMap, La meteo Aeronautica in un colpo d'occhio ! - Copyright ORBIFLY Dicembre 2007 - Disclaimer

ORBIFLY MET'MAP TEAM :

Programmazione e sviluppo : Alexandra Zaïnal
Concezione : Baudouin d'Aumeries
Aiuto per la programmazione : Marc-Olivier Méhu
Supporto tecnico e logistico : Manuel Goepfert
Aiuto per la traduzione : Arnaldo La Scala

Contatto : metmap@orbifly.com




FONTI E CREDITI :

   NOAA